sensor_id;sensor_type;location;lat;lon;timestamp;pressure;altitude;pressure_sealevel;temperature;humidity
72640;BME280;60683;51.730;8.762;2024-02-15T00:01:14;100505.38;;;11.24;100.00
72640;BME280;60683;51.730;8.762;2024-02-15T00:03:59;100510.06;;;11.29;100.00
72640;BME280;60683;51.730;8.762;2024-02-15T00:06:44;100502.56;;;11.31;100.00
72640;BME280;60683;51.730;8.762;2024-02-15T00:09:29;100499.97;;;11.24;100.00
72640;BME280;60683;51.730;8.762;2024-02-15T00:12:15;100509.47;;;11.27;100.00
72640;BME280;60683;51.730;8.762;2024-02-15T00:15:00;100506.78;;;11.27;100.00
72640;BME280;60683;51.730;8.762;2024-02-15T00:17:47;100507.38;;;11.29;100.00
72640;BME280;60683;51.730;8.762;2024-02-15T00:20:32;100509.69;;;11.25;100.00
72640;BME280;60683;51.730;8.762;2024-02-15T00:23:18;100517.84;;;11.19;100.00
72640;BME280;60683;51.730;8.762;2024-02-15T00:26:03;100519.50;;;11.20;100.00
72640;BME280;60683;51.730;8.762;2024-02-15T00:28:49;100518.31;;;11.16;100.00
72640;BME280;60683;51.730;8.762;2024-02-15T00:31:34;100525.19;;;11.12;100.00
72640;BME280;60683;51.730;8.762;2024-02-15T00:34:23;100522.28;;;11.13;100.00
72640;BME280;60683;51.730;8.762;2024-02-15T00:37:10;100517.72;;;11.14;100.00
72640;BME280;60683;51.730;8.762;2024-02-15T00:39:56;100522.28;;;11.13;100.00
72640;BME280;60683;51.730;8.762;2024-02-15T00:42:41;100514.34;;;11.18;100.00
72640;BME280;60683;51.730;8.762;2024-02-15T00:45:26;100518.91;;;11.18;100.00
72640;BME280;60683;51.730;8.762;2024-02-15T00:48:12;100511.50;;;11.13;100.00
72640;BME280;60683;51.730;8.762;2024-02-15T00:50:59;100524.28;;;11.18;100.00
72640;BME280;60683;51.730;8.762;2024-02-15T00:53:44;100520.53;;;11.19;100.00
72640;BME280;60683;51.730;8.762;2024-02-15T00:56:30;100527.81;;;11.18;100.00
72640;BME280;60683;51.730;8.762;2024-02-15T00:59:16;100522.66;;;11.17;100.00
72640;BME280;60683;51.730;8.762;2024-02-15T01:02:02;100528.47;;;11.14;100.00
72640;BME280;60683;51.730;8.762;2024-02-15T01:04:50;100534.31;;;11.11;100.00
72640;BME280;60683;51.730;8.762;2024-02-15T01:07:38;100526.78;;;11.01;100.00
72640;BME280;60683;51.730;8.762;2024-02-15T01:10:23;100528.66;;;11.01;100.00
72640;BME280;60683;51.730;8.762;2024-02-15T01:13:09;100527.09;;;10.93;100.00
72640;BME280;60683;51.730;8.762;2024-02-15T01:15:54;100535.84;;;10.88;100.00
72640;BME280;60683;51.730;8.762;2024-02-15T01:18:40;100534.22;;;10.87;100.00
72640;BME280;60683;51.730;8.762;2024-02-15T01:21:25;100527.03;;;10.81;100.00
72640;BME280;60683;51.730;8.762;2024-02-15T01:24:11;100536.31;;;10.85;100.00
72640;BME280;60683;51.730;8.762;2024-02-15T01:26:56;100534.66;;;10.84;100.00
72640;BME280;60683;51.730;8.762;2024-02-15T01:29:41;100534.66;;;10.84;100.00
72640;BME280;60683;51.730;8.762;2024-02-15T01:32:27;100524.72;;;10.85;100.00
72640;BME280;60683;51.730;8.762;2024-02-15T01:35:12;100514.94;;;10.90;100.00
72640;BME280;60683;51.730;8.762;2024-02-15T01:37:58;100525.09;;;10.88;100.00
72640;BME280;60683;51.730;8.762;2024-02-15T01:40:46;100527.19;;;10.86;100.00
72640;BME280;60683;51.730;8.762;2024-02-15T01:43:31;100532.84;;;10.97;100.00
72640;BME280;60683;51.730;8.762;2024-02-15T01:46:17;100526.53;;;10.91;100.00
72640;BME280;60683;51.730;8.762;2024-02-15T01:49:02;100523.94;;;10.96;100.00
72640;BME280;60683;51.730;8.762;2024-02-15T01:51:51;100523.72;;;10.98;100.00
72640;BME280;60683;51.730;8.762;2024-02-15T01:54:38;100522.53;;;10.93;100.00
72640;BME280;60683;51.730;8.762;2024-02-15T01:57:25;100523.00;;;10.90;100.00
72640;BME280;60683;51.730;8.762;2024-02-15T02:00:11;100532.44;;;10.81;100.00
72640;BME280;60683;51.730;8.762;2024-02-15T02:02:58;100530.19;;;10.78;100.00
72640;BME280;60683;51.730;8.762;2024-02-15T02:05:47;100529.38;;;10.78;100.00
72640;BME280;60683;51.730;8.762;2024-02-15T02:08:33;100526.91;;;10.76;100.00
72640;BME280;60683;51.730;8.762;2024-02-15T02:11:18;100525.25;;;10.75;100.00
72640;BME280;60683;51.730;8.762;2024-02-15T02:14:05;100523.16;;;10.77;100.00
72640;BME280;60683;51.730;8.762;2024-02-15T02:16:51;100525.03;;;10.77;100.00
72640;BME280;60683;51.730;8.762;2024-02-15T02:19:37;100529.38;;;10.78;100.00
72640;BME280;60683;51.730;8.762;2024-02-15T02:22:23;100528.53;;;10.77;100.00
72640;BME280;60683;51.730;8.762;2024-02-15T02:25:10;100533.47;;;10.80;100.00
72640;BME280;60683;51.730;8.762;2024-02-15T02:27:56;100530.78;;;10.80;100.00
72640;BME280;60683;51.730;8.762;2024-02-15T02:30:42;100533.03;;;10.83;100.00
72640;BME280;60683;51.730;8.762;2024-02-15T02:33:29;100527.28;;;10.80;100.00
72640;BME280;60683;51.730;8.762;2024-02-15T02:36:14;100526.44;;;10.79;100.00
72640;BME280;60683;51.730;8.762;2024-02-15T02:39:00;100524.81;;;10.78;100.00
72640;BME280;60683;51.730;8.762;2024-02-15T02:41:47;100531.81;;;10.79;100.00
72640;BME280;60683;51.730;8.762;2024-02-15T02:44:32;100531.00;;;10.79;100.00
72640;BME280;60683;51.730;8.762;2024-02-15T02:47:17;100535.63;;;10.72;100.00
72640;BME280;60683;51.730;8.762;2024-02-15T02:50:02;100529.00;;;10.74;100.00
72640;BME280;60683;51.730;8.762;2024-02-15T02:52:48;100527.94;;;10.75;100.00
72640;BME280;60683;51.730;8.762;2024-02-15T02:55:33;100520.03;;;10.80;100.00
72640;BME280;60683;51.730;8.762;2024-02-15T02:58:20;100525.19;;;10.82;100.00
72640;BME280;60683;51.730;8.762;2024-02-15T03:01:05;100524.50;;;10.86;100.00
72640;BME280;60683;51.730;8.762;2024-02-15T03:03:52;100514.34;;;10.88;100.00
72640;BME280;60683;51.730;8.762;2024-02-15T03:06:39;100525.09;;;10.88;100.00
72640;BME280;60683;51.730;8.762;2024-02-15T03:09:26;100518.19;;;10.92;100.00
72640;BME280;60683;51.730;8.762;2024-02-15T03:12:13;100525.22;;;10.93;100.00
72640;BME280;60683;51.730;8.762;2024-02-15T03:15:00;100508.84;;;10.95;100.00
72640;BME280;60683;51.730;8.762;2024-02-15T03:17:47;100512.59;;;10.94;100.00
72640;BME280;60683;51.730;8.762;2024-02-15T03:20:33;100517.97;;;10.94;100.00
72640;BME280;60683;51.730;8.762;2024-02-15T03:23:19;100520.44;;;10.95;100.00
72640;BME280;60683;51.730;8.762;2024-02-15T03:26:07;100520.44;;;10.95;100.00
72640;BME280;60683;51.730;8.762;2024-02-15T03:28:54;100521.25;;;10.96;100.00
72640;BME280;60683;51.730;8.762;2024-02-15T03:31:41;100512.13;;;10.97;100.00
72640;BME280;60683;51.730;8.762;2024-02-15T03:34:26;100523.72;;;10.98;100.00
72640;BME280;60683;51.730;8.762;2024-02-15T03:37:11;100516.69;;;10.97;100.00
72640;BME280;60683;51.730;8.762;2024-02-15T03:39:56;100514.16;;;11.02;100.00
72640;BME280;60683;51.730;8.762;2024-02-15T03:42:41;100510.28;;;10.98;100.00
72640;BME280;60683;51.730;8.762;2024-02-15T03:45:26;100507.72;;;11.03;100.00
72640;BME280;60683;51.730;8.762;2024-02-15T03:48:13;100500.09;;;11.00;100.00
72640;BME280;60683;51.730;8.762;2024-02-15T03:50:59;100503.03;;;10.98;100.00
72640;BME280;60683;51.730;8.762;2024-02-15T03:53:46;100503.03;;;10.98;100.00
72640;BME280;60683;51.730;8.762;2024-02-15T03:56:32;100497.75;;;10.91;100.00
72640;BME280;60683;51.730;8.762;2024-02-15T03:59:27;100499.28;;;10.99;100.00
72640;BME280;60683;51.730;8.762;2024-02-15T04:02:12;100496.22;;;10.95;100.00
72640;BME280;60683;51.730;8.762;2024-02-15T04:05:00;100511.78;;;10.93;100.00
72640;BME280;60683;51.730;8.762;2024-02-15T04:07:45;100498.47;;;10.99;100.00
72640;BME280;60683;51.730;8.762;2024-02-15T04:10:30;100505.94;;;10.97;100.00
72640;BME280;60683;51.730;8.762;2024-02-15T04:13:15;100502.06;;;10.92;100.00
72640;BME280;60683;51.730;8.762;2024-02-15T04:16:01;100506.31;;;11.00;100.00
72640;BME280;60683;51.730;8.762;2024-02-15T04:18:46;100502.56;;;11.01;100.00
72640;BME280;60683;51.730;8.762;2024-02-15T04:21:33;100509.22;;;10.99;100.00
72640;BME280;60683;51.730;8.762;2024-02-15T04:24:18;100513.91;;;11.03;100.00
72640;BME280;60683;51.730;8.762;2024-02-15T04:27:05;100508.78;;;11.02;100.00
72640;BME280;60683;51.730;8.762;2024-02-15T04:29:51;100511.09;;;10.98;100.00
72640;BME280;60683;51.730;8.762;2024-02-15T04:32:37;100508.78;;;11.02;100.00
72640;BME280;60683;51.730;8.762;2024-02-15T04:35:22;100504.22;;;11.02;100.00
72640;BME280;60683;51.730;8.762;2024-02-15T04:38:10;100507.13;;;11.01;100.00
72640;BME280;60683;51.730;8.762;2024-02-15T04:40:55;100509.00;;;11.00;100.00
72640;BME280;60683;51.730;8.762;2024-02-15T04:43:40;100506.53;;;10.99;100.00
72640;BME280;60683;51.730;8.762;2024-02-15T04:46:26;100511.31;;;10.97;100.00
72640;BME280;60683;51.730;8.762;2024-02-15T04:49:11;100505.72;;;10.98;100.00
72640;BME280;60683;51.730;8.762;2024-02-15T04:51:56;100501.16;;;10.99;100.00
72640;BME280;60683;51.730;8.762;2024-02-15T04:54:43;100494.34;;;10.96;100.00
72640;BME280;60683;51.730;8.762;2024-02-15T04:57:29;100496.38;;;11.01;100.00
72640;BME280;60683;51.730;8.762;2024-02-15T05:00:15;100488.16;;;10.95;100.00
72640;BME280;60683;51.730;8.762;2024-02-15T05:03:00;100487.09;;;10.97;100.00
72640;BME280;60683;51.730;8.762;2024-02-15T05:05:45;100486.50;;;10.94;100.00
72640;BME280;60683;51.730;8.762;2024-02-15T05:08:31;100488.38;;;10.94;100.00
72640;BME280;60683;51.730;8.762;2024-02-15T05:11:18;100492.38;;;10.91;100.00
72640;BME280;60683;51.730;8.762;2024-02-15T05:14:06;100491.41;;;10.86;100.00
72640;BME280;60683;51.730;8.762;2024-02-15T05:16:52;100495.16;;;10.85;100.00
72640;BME280;60683;51.730;8.762;2024-02-15T05:19:37;100497.38;;;10.88;100.00
72640;BME280;60683;51.730;8.762;2024-02-15T05:22:22;100497.38;;;10.88;100.00
72640;BME280;60683;51.730;8.762;2024-02-15T05:25:07;100495.06;;;10.91;100.00
72640;BME280;60683;51.730;8.762;2024-02-15T05:27:55;100494.25;;;10.91;100.00
72640;BME280;60683;51.730;8.762;2024-02-15T05:30:41;100493.06;;;10.87;100.00
72640;BME280;60683;51.730;8.762;2024-02-15T05:33:28;100494.31;;;10.84;100.00
72640;BME280;60683;51.730;8.762;2024-02-15T05:36:17;100492.91;;;10.82;100.00
72640;BME280;60683;51.730;8.762;2024-02-15T05:39:04;100486.34;;;10.78;100.00
72640;BME280;60683;51.730;8.762;2024-02-15T05:41:49;100488.06;;;10.72;100.00
72640;BME280;60683;51.730;8.762;2024-02-15T05:44:36;100491.66;;;10.66;100.00
72640;BME280;60683;51.730;8.762;2024-02-15T05:47:21;100489.41;;;10.63;100.00
72640;BME280;60683;51.730;8.762;2024-02-15T05:50:07;100494.56;;;10.65;100.00
72640;BME280;60683;51.730;8.762;2024-02-15T05:52:53;100484.78;;;10.70;100.00
72640;BME280;60683;51.730;8.762;2024-02-15T05:55:39;100479.09;;;10.78;100.00
72640;BME280;60683;51.730;8.762;2024-02-15T05:58:28;100483.41;;;10.79;100.00
72640;BME280;60683;51.730;8.762;2024-02-15T06:01:14;100481.56;;;10.80;100.00
72640;BME280;60683;51.730;8.762;2024-02-15T06:04:00;100482.53;;;10.85;100.00
72640;BME280;60683;51.730;8.762;2024-02-15T06:06:49;100484.97;;;10.87;100.00
72640;BME280;60683;51.730;8.762;2024-02-15T06:09:34;100486.41;;;10.89;100.00
72640;BME280;60683;51.730;8.762;2024-02-15T06:12:21;100480.53;;;10.92;100.00
72640;BME280;60683;51.730;8.762;2024-02-15T06:15:07;100482.53;;;10.85;100.00
72640;BME280;60683;51.730;8.762;2024-02-15T06:17:59;100475.41;;;10.91;100.00
72640;BME280;60683;51.730;8.762;2024-02-15T06:20:44;100478.19;;;10.84;100.00
72640;BME280;60683;51.730;8.762;2024-02-15T06:23:33;100475.50;;;10.84;100.00
72640;BME280;60683;51.730;8.762;2024-02-15T06:26:19;100479.97;;;10.90;100.00
72640;BME280;60683;51.730;8.762;2024-02-15T06:29:05;100471.31;;;10.88;100.00
72640;BME280;60683;51.730;8.762;2024-02-15T06:32:08;100471.31;;;10.88;100.00
72640;BME280;60683;51.730;8.762;2024-02-15T06:35:15;100466.97;;;10.87;100.00
72640;BME280;60683;51.730;8.762;2024-02-15T06:38:17;100469.22;;;10.90;100.00
72640;BME280;60683;51.730;8.762;2024-02-15T06:41:20;100455.66;;;10.97;100.00
72640;BME280;60683;51.730;8.762;2024-02-15T06:44:05;100459.38;;;10.96;100.00
72640;BME280;60683;51.730;8.762;2024-02-15T06:46:51;100460.44;;;10.95;100.00
72640;BME280;60683;51.730;8.762;2024-02-15T06:49:37;100459.88;;;11.05;100.00
72640;BME280;60683;51.730;8.762;2024-02-15T06:52:26;100462.81;;;11.03;100.00
72640;BME280;60683;51.730;8.762;2024-02-15T06:55:12;100462.72;;;11.10;100.00
72640;BME280;60683;51.730;8.762;2024-02-15T06:57:59;100461.66;;;11.11;100.00
72640;BME280;60683;51.730;8.762;2024-02-15T07:00:44;100466.00;;;11.12;100.00
72640;BME280;60683;51.730;8.762;2024-02-15T07:03:30;100469.41;;;11.19;100.00
72640;BME280;60683;51.730;8.762;2024-02-15T07:06:16;100469.75;;;11.11;100.00
72640;BME280;60683;51.730;8.762;2024-02-15T07:09:03;100468.47;;;11.13;100.00
72640;BME280;60683;51.730;8.762;2024-02-15T07:11:48;100461.81;;;11.16;100.00
72640;BME280;60683;51.730;8.762;2024-02-15T07:14:34;100460.41;;;11.13;100.00
72640;BME280;60683;51.730;8.762;2024-02-15T07:17:19;100462.16;;;11.19;100.00
72640;BME280;60683;51.730;8.762;2024-02-15T07:20:06;100456.34;;;11.22;100.00
72640;BME280;60683;51.730;8.762;2024-02-15T07:22:51;100462.06;;;11.26;100.00
72640;BME280;60683;51.730;8.762;2024-02-15T07:25:38;100455.31;;;11.35;100.00
72640;BME280;60683;51.730;8.762;2024-02-15T07:28:24;100450.97;;;11.34;100.00
72640;BME280;60683;51.730;8.762;2024-02-15T07:31:10;100447.09;;;11.30;100.00
72640;BME280;60683;51.730;8.762;2024-02-15T07:33:56;100442.81;;;11.41;100.00
72640;BME280;60683;51.730;8.762;2024-02-15T07:36:42;100447.97;;;11.42;100.00
72640;BME280;60683;51.730;8.762;2024-02-15T07:39:29;100447.81;;;11.49;100.00
72640;BME280;60683;51.730;8.762;2024-02-15T07:42:16;100455.91;;;11.49;100.00
72640;BME280;60683;51.730;8.762;2024-02-15T07:45:01;100450.28;;;11.50;100.00
72640;BME280;60683;51.730;8.762;2024-02-15T07:47:50;100455.22;;;11.53;100.00
72640;BME280;60683;51.730;8.762;2024-02-15T07:50:36;100455.09;;;11.60;100.00
72640;BME280;60683;51.730;8.762;2024-02-15T07:53:21;100457.34;;;11.63;100.00
72640;BME280;60683;51.730;8.762;2024-02-15T07:56:07;100449.75;;;11.72;100.00
72640;BME280;60683;51.730;8.762;2024-02-15T07:58:54;100451.88;;;11.81;100.00
72640;BME280;60683;51.730;8.762;2024-02-15T08:01:40;100452.72;;;11.93;100.00
72640;BME280;60683;51.730;8.762;2024-02-15T08:04:25;100454.69;;;11.98;100.00
72640;BME280;60683;51.730;8.762;2024-02-15T08:07:10;100459.84;;;12.00;100.00
72640;BME280;60683;51.730;8.762;2024-02-15T08:09:56;100467.34;;;12.09;100.00
72640;BME280;60683;51.730;8.762;2024-02-15T08:12:42;100463.13;;;12.13;100.00
72640;BME280;60683;51.730;8.762;2024-02-15T08:15:30;100468.75;;;12.12;100.00
72640;BME280;60683;51.730;8.762;2024-02-15T08:18:16;100472.03;;;12.14;100.00
72640;BME280;60683;51.730;8.762;2024-02-15T08:21:03;100469.78;;;12.11;100.00
72640;BME280;60683;51.730;8.762;2024-02-15T08:23:48;100466.41;;;12.15;100.00
72640;BME280;60683;51.730;8.762;2024-02-15T08:26:35;100468.03;;;12.16;100.00
72640;BME280;60683;51.730;8.762;2024-02-15T08:29:21;100460.31;;;12.20;100.00
72640;BME280;60683;51.730;8.762;2024-02-15T08:32:08;100465.22;;;12.23;100.00
72640;BME280;60683;51.730;8.762;2024-02-15T08:34:53;100460.06;;;12.21;100.00
72640;BME280;60683;51.730;8.762;2024-02-15T08:37:39;100457.59;;;12.20;100.00
72640;BME280;60683;51.730;8.762;2024-02-15T08:40:26;100456.66;;;12.26;100.00
72640;BME280;60683;51.730;8.762;2024-02-15T08:43:11;100449.75;;;12.18;100.00
72640;BME280;60683;51.730;8.762;2024-02-15T08:45:58;100441.56;;;12.13;100.00
72640;BME280;60683;51.730;8.762;2024-02-15T08:48:45;100445.91;;;12.03;100.00
72640;BME280;60683;51.730;8.762;2024-02-15T08:51:30;100438.28;;;12.00;100.00
72640;BME280;60683;51.730;8.762;2024-02-15T08:54:16;100433.88;;;11.93;100.00
72640;BME280;60683;51.730;8.762;2024-02-15T08:57:01;100438.50;;;11.98;100.00
72640;BME280;60683;51.730;8.762;2024-02-15T08:59:47;100441.13;;;11.93;100.00
72640;BME280;60683;51.730;8.762;2024-02-15T09:02:32;100440.97;;;12.00;100.00
72640;BME280;60683;51.730;8.762;2024-02-15T09:05:19;100433.13;;;11.98;100.00
72640;BME280;60683;51.730;8.762;2024-02-15T09:08:06;100427.72;;;12.10;100.00
72640;BME280;60683;51.730;8.762;2024-02-15T09:10:52;100432.88;;;12.11;100.00
72640;BME280;60683;51.730;8.762;2024-02-15T09:13:38;100434.28;;;12.02;100.00
72640;BME280;60683;51.730;8.762;2024-02-15T09:16:23;100441.94;;;11.93;100.00
72640;BME280;60683;51.730;8.762;2024-02-15T09:19:08;100445.34;;;11.89;100.00
72640;BME280;60683;51.730;8.762;2024-02-15T09:21:55;100461.50;;;11.89;100.00
72640;BME280;60683;51.730;8.762;2024-02-15T09:24:41;100459.28;;;11.86;100.00
72640;BME280;60683;51.730;8.762;2024-02-15T09:27:26;100458.22;;;11.87;100.00
72640;BME280;60683;51.730;8.762;2024-02-15T09:30:12;100451.06;;;11.81;100.00
72640;BME280;60683;51.730;8.762;2024-02-15T09:32:58;100460.78;;;11.82;100.00
72640;BME280;60683;51.730;8.762;2024-02-15T09:35:43;100450.84;;;11.82;100.00
72640;BME280;60683;51.730;8.762;2024-02-15T09:38:30;100456.91;;;11.78;100.00
72640;BME280;60683;51.730;8.762;2024-02-15T09:41:15;100466.25;;;11.75;100.00
72640;BME280;60683;51.730;8.762;2024-02-15T09:44:01;100454.31;;;11.71;100.00
72640;BME280;60683;51.730;8.762;2024-02-15T09:46:52;100446.00;;;11.73;100.00
72640;BME280;60683;51.730;8.762;2024-02-15T09:49:39;100437.59;;;11.81;100.00
72640;BME280;60683;51.730;8.762;2024-02-15T09:52:25;100435.72;;;11.93;100.00
72640;BME280;60683;51.730;8.762;2024-02-15T09:55:13;100440.16;;;11.99;100.00
72640;BME280;60683;51.730;8.762;2024-02-15T09:57:59;100435.47;;;12.06;100.00
72640;BME280;60683;51.730;8.762;2024-02-15T10:00:44;100441.66;;;12.18;100.00
72640;BME280;60683;51.730;8.762;2024-02-15T10:03:30;100437.66;;;12.33;100.00
72640;BME280;60683;51.730;8.762;2024-02-15T10:06:16;100442.81;;;12.34;100.00
72640;BME280;60683;51.730;8.762;2024-02-15T10:09:32;100442.69;;;12.41;100.00
72640;BME280;60683;51.730;8.762;2024-02-15T10:12:19;100448.22;;;12.34;100.00
72640;BME280;60683;51.730;8.762;2024-02-15T10:15:05;100446.56;;;12.33;100.00
72640;BME280;60683;51.730;8.762;2024-02-15T10:17:54;100460.19;;;12.26;100.00
72640;BME280;60683;51.730;8.762;2024-02-15T10:20:39;100455.84;;;12.25;100.00
72640;BME280;60683;51.730;8.762;2024-02-15T10:23:28;100463.47;;;12.17;100.00
72640;BME280;60683;51.730;8.762;2024-02-15T10:26:19;100456.09;;;12.12;100.00
72640;BME280;60683;51.730;8.762;2024-02-15T10:29:09;100464.16;;;12.12;100.00
72640;BME280;60683;51.730;8.762;2024-02-15T10:31:56;100461.25;;;12.14;100.00
72640;BME280;60683;51.730;8.762;2024-02-15T10:34:46;100465.56;;;12.15;100.00
72640;BME280;60683;51.730;8.762;2024-02-15T10:37:32;100460.53;;;12.18;100.00
72640;BME280;60683;51.730;8.762;2024-02-15T10:40:17;100463.13;;;12.13;100.00
72640;BME280;60683;51.730;8.762;2024-02-15T10:43:04;100457.84;;;12.18;100.00
72640;BME280;60683;51.730;8.762;2024-02-15T10:45:52;100464.88;;;12.19;100.00
72640;BME280;60683;51.730;8.762;2024-02-15T10:48:37;100468.84;;;12.17;100.00
72640;BME280;60683;51.730;8.762;2024-02-15T10:51:23;100468.84;;;12.17;100.00
72640;BME280;60683;51.730;8.762;2024-02-15T10:54:12;100468.28;;;12.15;100.00
72640;BME280;60683;51.730;8.762;2024-02-15T10:57:03;100465.34;;;12.05;100.00
72640;BME280;60683;51.730;8.762;2024-02-15T10:59:54;100467.81;;;12.06;100.00
72640;BME280;60683;51.730;8.762;2024-02-15T11:02:46;100474.94;;;12.01;100.00
72640;BME280;60683;51.730;8.762;2024-02-15T11:05:36;100468.88;;;11.93;100.00
72640;BME280;60683;51.730;8.762;2024-02-15T11:08:22;100464.78;;;11.91;100.00
72640;BME280;60683;51.730;8.762;2024-02-15T11:11:08;100469.34;;;11.90;100.00
72640;BME280;60683;51.730;8.762;2024-02-15T11:14:23;100463.03;;;11.85;100.00
72640;BME280;60683;51.730;8.762;2024-02-15T11:17:08;100464.66;;;11.86;100.00
72640;BME280;60683;51.730;8.762;2024-02-15T11:19:59;100467.94;;;11.88;100.00
72640;BME280;60683;51.730;8.762;2024-02-15T11:22:55;100463.84;;;11.85;100.00
72640;BME280;60683;51.730;8.762;2024-02-15T11:25:41;100467.72;;;11.89;100.00
72640;BME280;60683;51.730;8.762;2024-02-15T11:28:39;100471.47;;;11.88;100.00
72640;BME280;60683;51.730;8.762;2024-02-15T11:31:54;100476.03;;;11.88;100.00
72640;BME280;60683;51.730;8.762;2024-02-15T11:34:43;100472.38;;;11.82;100.00
72640;BME280;60683;51.730;8.762;2024-02-15T11:37:50;100480.69;;;11.81;100.00
72640;BME280;60683;51.730;8.762;2024-02-15T11:40:59;100472.16;;;11.84;100.00
72640;BME280;60683;51.730;8.762;2024-02-15T11:43:49;100477.78;;;11.94;100.00
72640;BME280;60683;51.730;8.762;2024-02-15T11:46:39;100479.06;;;12.03;100.00
72640;BME280;60683;51.730;8.762;2024-02-15T11:49:24;100476.81;;;12.12;100.00
72640;BME280;60683;51.730;8.762;2024-02-15T11:52:10;100473.06;;;12.13;100.00
72640;BME280;60683;51.730;8.762;2024-02-15T11:55:05;100463.00;;;12.20;100.00
72640;BME280;60683;51.730;8.762;2024-02-15T11:57:55;100471.19;;;12.25;100.00
72640;BME280;60683;51.730;8.762;2024-02-15T12:00:46;100458.53;;;12.25;100.00
72640;BME280;60683;51.730;8.762;2024-02-15T12:03:52;100455.63;;;12.15;100.00
72640;BME280;60683;51.730;8.762;2024-02-15T12:06:56;100450.34;;;12.20;100.00
72640;BME280;60683;51.730;8.762;2024-02-15T12:10:00;100448.13;;;12.17;100.00
72640;BME280;60683;51.730;8.762;2024-02-15T12:13:18;100438.88;;;12.13;100.00
72640;BME280;60683;51.730;8.762;2024-02-15T12:16:21;100438.28;;;12.11;100.00
72640;BME280;60683;51.730;8.762;2024-02-15T12:19:24;100436.28;;;12.07;100.00
72640;BME280;60683;51.730;8.762;2024-02-15T12:22:10;100428.91;;;12.02;100.00
72640;BME280;60683;51.730;8.762;2024-02-15T12:24:57;100416.50;;;12.01;100.00
72640;BME280;60683;51.730;8.762;2024-02-15T12:27:44;100413.78;;;12.01;100.00
72640;BME280;60683;51.730;8.762;2024-02-15T12:30:34;100409.34;;;12.07;100.00
72640;BME280;60683;51.730;8.762;2024-02-15T12:33:20;100396.81;;;12.12;100.00
72640;BME280;60683;51.730;8.762;2024-02-15T12:36:07;100368.22;;;12.11;100.00
72640;BME280;60683;51.730;8.762;2024-02-15T12:38:58;100357.44;;;12.11;100.00
72640;BME280;60683;51.730;8.762;2024-02-15T12:41:48;100347.47;;;12.12;100.00
72640;BME280;60683;51.730;8.762;2024-02-15T12:44:34;100342.44;;;12.15;100.00
72640;BME280;60683;51.730;8.762;2024-02-15T12:47:22;100336.81;;;12.17;100.00
72640;BME280;60683;51.730;8.762;2024-02-15T12:50:13;100337.97;;;12.21;100.00
72640;BME280;60683;51.730;8.762;2024-02-15T12:52:58;100325.66;;;12.25;100.00
72640;BME280;60683;51.730;8.762;2024-02-15T12:55:52;100327.84;;;12.28;100.00
72640;BME280;60683;51.730;8.762;2024-02-15T12:58:38;100320.13;;;12.32;100.00
72640;BME280;60683;51.730;8.762;2024-02-15T13:01:25;100320.56;;;12.40;100.00
72640;BME280;60683;51.730;8.762;2024-02-15T13:04:23;100316.63;;;12.48;100.00
72640;BME280;60683;51.730;8.762;2024-02-15T13:07:08;100315.09;;;12.52;100.00
72640;BME280;60683;51.730;8.762;2024-02-15T13:09:53;100312.47;;;12.57;100.00
72640;BME280;60683;51.730;8.762;2024-02-15T13:12:39;100312.16;;;12.53;100.00
72640;BME280;60683;51.730;8.762;2024-02-15T13:15:24;100310.50;;;12.52;100.00
72640;BME280;60683;51.730;8.762;2024-02-15T13:18:16;100312.16;;;12.53;100.00
72640;BME280;60683;51.730;8.762;2024-02-15T13:21:03;100314.13;;;12.58;100.00
72640;BME280;60683;51.730;8.762;2024-02-15T13:23:50;100307.19;;;12.62;100.00
72640;BME280;60683;51.730;8.762;2024-02-15T13:26:35;100302.13;;;12.66;100.00
72640;BME280;60683;51.730;8.762;2024-02-15T13:29:20;100297.06;;;12.69;100.00
72640;BME280;60683;51.730;8.762;2024-02-15T13:32:06;100289.63;;;12.76;100.00
72640;BME280;60683;51.730;8.762;2024-02-15T13:34:54;100290.63;;;12.87;100.00
72640;BME280;60683;51.730;8.762;2024-02-15T13:37:46;100287.78;;;12.93;100.00
72640;BME280;60683;51.730;8.762;2024-02-15T13:40:31;100285.22;;;13.04;100.00
72640;BME280;60683;51.730;8.762;2024-02-15T13:43:17;100278.84;;;13.10;100.00
72640;BME280;60683;51.730;8.762;2024-02-15T13:46:02;100277.16;;;13.20;100.00
72640;BME280;60683;51.730;8.762;2024-02-15T13:48:48;100273.22;;;13.28;100.00
72640;BME280;60683;51.730;8.762;2024-02-15T13:51:34;100278.53;;;13.23;100.00
72640;BME280;60683;51.730;8.762;2024-02-15T13:54:20;100268.22;;;13.20;100.00
72640;BME280;60683;51.730;8.762;2024-02-15T13:57:06;100264.53;;;13.26;100.00
72640;BME280;60683;51.730;8.762;2024-02-15T13:59:52;100262.16;;;13.30;100.00
72640;BME280;60683;51.730;8.762;2024-02-15T14:02:37;100272.66;;;13.26;100.00
72640;BME280;60683;51.730;8.762;2024-02-15T14:05:23;100270.28;;;13.30;100.00
72640;BME280;60683;51.730;8.762;2024-02-15T14:08:10;100271.16;;;13.35;100.00
72640;BME280;60683;51.730;8.762;2024-02-15T14:10:57;100262.88;;;13.42;100.00
72640;BME280;60683;51.730;8.762;2024-02-15T14:13:42;100269.19;;;13.47;100.00
72640;BME280;60683;51.730;8.762;2024-02-15T14:16:28;100258.50;;;13.57;100.00
72640;BME280;60683;51.730;8.762;2024-02-15T14:19:13;100256.84;;;13.56;100.00
72640;BME280;60683;51.730;8.762;2024-02-15T14:21:59;100248.31;;;13.65;100.00
72640;BME280;60683;51.730;8.762;2024-02-15T14:24:46;100256.50;;;13.70;100.00